Kansas City, Missouri
Traffic Map
Current Weather Conditions
Kansas City, Missouri
Overcast
Overcast
-1°
Feels Like: -4°
Wind Chill: -4° Ceiling: 5000
Heat Index: -1° Visibility: 10mi
Dew Point: -6° Wind: 6mph
Humidity: 69% Direction: 70° (ENE)
Pressure: 30.19in Gusts: 0mph
Raw Report DataKMKC 120654Z 07005KT 10SM OVC050 M01/M06 A3019 RMK AO2 SLP229 T10061056
Traffic Incident Summary
Active as of:
Severity:
Category:
InformationThere was an issue retrieving the traffic information for this location. Please try a different location or try again shortly.
Advertisements
Track Severe Weather on mobile